sensor_id;sensor_type;location;lat;lon;timestamp;pressure;altitude;pressure_sealevel;temperature;humidity
76260;BME280;65076;52.362;6.588;2023-01-04T00:01:30;101898.34;;;9.48;73.86
76260;BME280;65076;52.362;6.588;2023-01-04T00:03:59;101902.63;;;9.23;74.21
76260;BME280;65076;52.362;6.588;2023-01-04T00:06:27;101902.28;;;9.37;73.94
76260;BME280;65076;52.362;6.588;2023-01-04T00:08:55;101895.22;;;9.31;73.84
76260;BME280;65076;52.362;6.588;2023-01-04T00:11:23;101896.41;;;9.19;75.22
76260;BME280;65076;52.362;6.588;2023-01-04T00:13:54;101887.03;;;9.34;74.85
76260;BME280;65076;52.362;6.588;2023-01-04T00:16:25;101885.31;;;9.31;74.90
76260;BME280;65076;52.362;6.588;2023-01-04T00:18:55;101875.06;;;9.44;74.58
76260;BME280;65076;52.362;6.588;2023-01-04T00:21:25;101871.72;;;9.34;75.50
76260;BME280;65076;52.362;6.588;2023-01-04T00:23:56;101860.00;;;9.35;75.11
76260;BME280;65076;52.362;6.588;2023-01-04T00:26:29;101858.97;;;9.40;75.43
76260;BME280;65076;52.362;6.588;2023-01-04T00:28:59;101859.41;;;9.23;76.38
76260;BME280;65076;52.362;6.588;2023-01-04T00:31:29;101850.38;;;9.25;76.95
76260;BME280;65076;52.362;6.588;2023-01-04T00:34:00;101840.53;;;9.21;77.01
76260;BME280;65076;52.362;6.588;2023-01-04T00:36:30;101833.13;;;9.29;77.78
76260;BME280;65076;52.362;6.588;2023-01-04T00:38:59;101830.63;;;9.22;77.74
76260;BME280;65076;52.362;6.588;2023-01-04T00:41:37;101829.03;;;9.15;78.66
76260;BME280;65076;52.362;6.588;2023-01-04T00:44:26;101823.94;;;9.04;79.54
76260;BME280;65076;52.362;6.588;2023-01-04T00:46:56;101810.19;;;9.13;79.80
76260;BME280;65076;52.362;6.588;2023-01-04T00:49:26;101807.38;;;9.16;80.02
76260;BME280;65076;52.362;6.588;2023-01-04T00:51:55;101798.63;;;9.08;80.20
76260;BME280;65076;52.362;6.588;2023-01-04T00:54:23;101786.66;;;9.17;80.71
76260;BME280;65076;52.362;6.588;2023-01-04T00:56:52;101778.81;;;9.08;80.48
76260;BME280;65076;52.362;6.588;2023-01-04T00:59:20;101777.28;;;8.99;81.61
76260;BME280;65076;52.362;6.588;2023-01-04T01:01:49;101771.44;;;9.16;81.12
76260;BME280;65076;52.362;6.588;2023-01-04T01:04:19;101756.72;;;8.93;81.46
76260;BME280;65076;52.362;6.588;2023-01-04T01:06:50;101754.56;;;9.06;81.45
76260;BME280;65076;52.362;6.588;2023-01-04T01:09:19;101748.97;;;9.14;82.09
76260;BME280;65076;52.362;6.588;2023-01-04T01:11:49;101750.78;;;9.13;82.01
76260;BME280;65076;52.362;6.588;2023-01-04T01:14:20;101731.84;;;9.15;82.20
76260;BME280;65076;52.362;6.588;2023-01-04T01:16:49;101733.03;;;9.05;82.69
76260;BME280;65076;52.362;6.588;2023-01-04T01:19:26;101729.38;;;9.06;83.15
76260;BME280;65076;52.362;6.588;2023-01-04T01:21:57;101731.97;;;9.10;82.70
76260;BME280;65076;52.362;6.588;2023-01-04T01:24:25;101723.88;;;9.10;82.97
76260;BME280;65076;52.362;6.588;2023-01-04T01:26:54;101717.53;;;9.11;83.55
76260;BME280;65076;52.362;6.588;2023-01-04T01:29:23;101718.53;;;9.09;84.45
76260;BME280;65076;52.362;6.588;2023-01-04T01:31:51;101701.03;;;9.22;83.79
76260;BME280;65076;52.362;6.588;2023-01-04T01:34:19;101707.59;;;9.13;84.44
76260;BME280;65076;52.362;6.588;2023-01-04T01:36:48;101702.91;;;9.20;84.09
76260;BME280;65076;52.362;6.588;2023-01-04T01:39:17;101695.00;;;9.12;84.61
76260;BME280;65076;52.362;6.588;2023-01-04T01:41:46;101686.47;;;8.97;84.87
76260;BME280;65076;52.362;6.588;2023-01-04T01:47:39;101677.03;;;9.11;84.99
76260;BME280;65076;52.362;6.588;2023-01-04T01:50:18;101672.53;;;9.12;85.20
76260;BME280;65076;52.362;6.588;2023-01-04T01:52:49;101673.56;;;9.06;85.09
76260;BME280;65076;52.362;6.588;2023-01-04T01:55:20;101667.13;;;9.12;85.34
76260;BME280;65076;52.362;6.588;2023-01-04T01:57:52;101659.09;;;9.10;86.10
76260;BME280;65076;52.362;6.588;2023-01-04T02:00:21;101649.94;;;9.16;85.18
76260;BME280;65076;52.362;6.588;2023-01-04T02:02:56;101638.91;;;9.22;85.74
76260;BME280;65076;52.362;6.588;2023-01-04T02:05:32;101637.34;;;9.15;85.65
76260;BME280;65076;52.362;6.588;2023-01-04T02:08:03;101617.94;;;9.31;85.61
76260;BME280;65076;52.362;6.588;2023-01-04T02:10:35;101621.22;;;9.12;86.50
76260;BME280;65076;52.362;6.588;2023-01-04T02:13:07;101619.19;;;9.20;86.12
76260;BME280;65076;52.362;6.588;2023-01-04T02:15:46;101628.78;;;9.30;86.61
76260;BME280;65076;52.362;6.588;2023-01-04T02:18:27;101596.28;;;9.33;86.25
76260;BME280;65076;52.362;6.588;2023-01-04T02:21:05;101605.25;;;9.33;86.21
76260;BME280;65076;52.362;6.588;2023-01-04T02:33:40;101603.63;;;9.28;86.92
76260;BME280;65076;52.362;6.588;2023-01-04T02:36:18;101580.34;;;9.25;87.69
76260;BME280;65076;52.362;6.588;2023-01-04T02:39:07;101578.25;;;9.33;87.33
76260;BME280;65076;52.362;6.588;2023-01-04T02:41:48;101577.28;;;9.36;87.61
76260;BME280;65076;52.362;6.588;2023-01-04T02:44:24;101560.09;;;9.39;87.40
76260;BME280;65076;52.362;6.588;2023-01-04T02:47:32;101550.88;;;9.46;88.03
76260;BME280;65076;52.362;6.588;2023-01-04T02:50:23;101541.97;;;9.42;87.51
76260;BME280;65076;52.362;6.588;2023-01-04T02:53:01;101549.78;;;9.51;87.80
76260;BME280;65076;52.362;6.588;2023-01-04T02:55:39;101552.50;;;9.51;87.90
76260;BME280;65076;52.362;6.588;2023-01-04T02:58:19;101543.16;;;9.61;88.20
76260;BME280;65076;52.362;6.588;2023-01-04T03:01:05;101519.06;;;9.54;88.08
76260;BME280;65076;52.362;6.588;2023-01-04T03:04:10;101510.56;;;9.66;87.88
76260;BME280;65076;52.362;6.588;2023-01-04T03:07:11;101507.66;;;9.72;87.75
76260;BME280;65076;52.362;6.588;2023-01-04T03:09:55;101527.63;;;9.68;87.54
76260;BME280;65076;52.362;6.588;2023-01-04T03:12:36;101517.38;;;9.77;87.28
76260;BME280;65076;52.362;6.588;2023-01-04T03:15:13;101506.50;;;9.79;87.31
76260;BME280;65076;52.362;6.588;2023-01-04T03:17:46;101512.75;;;9.81;86.98
76260;BME280;65076;52.362;6.588;2023-01-04T03:20:20;101511.53;;;9.90;86.88
76260;BME280;65076;52.362;6.588;2023-01-04T03:22:55;101495.22;;;9.93;86.87
76260;BME280;65076;52.362;6.588;2023-01-04T03:25:50;101495.66;;;10.05;86.84
76260;BME280;65076;52.362;6.588;2023-01-04T03:28:40;101482.31;;;10.01;86.75
76260;BME280;65076;52.362;6.588;2023-01-04T03:31:29;101481.38;;;10.02;86.79
76260;BME280;65076;52.362;6.588;2023-01-04T03:34:20;101490.72;;;9.93;87.51
76260;BME280;65076;52.362;6.588;2023-01-04T03:37:09;101476.19;;;9.96;87.30
76260;BME280;65076;52.362;6.588;2023-01-04T03:39:57;101498.75;;;9.95;87.74
76260;BME280;65076;52.362;6.588;2023-01-04T03:42:56;101500.13;;;10.06;87.87
76260;BME280;65076;52.362;6.588;2023-01-04T03:45:53;101477.31;;;10.15;87.48
76260;BME280;65076;52.362;6.588;2023-01-04T03:48:48;101475.28;;;10.22;87.32
76260;BME280;65076;52.362;6.588;2023-01-04T03:51:21;101476.22;;;10.20;87.49
76260;BME280;65076;52.362;6.588;2023-01-04T03:53:58;101467.34;;;10.17;87.29
76260;BME280;65076;52.362;6.588;2023-01-04T03:56:34;101473.50;;;10.20;87.76
76260;BME280;65076;52.362;6.588;2023-01-04T03:59:06;101479.00;;;10.42;87.14
76260;BME280;65076;52.362;6.588;2023-01-04T04:01:36;101474.06;;;10.30;87.31
76260;BME280;65076;52.362;6.588;2023-01-04T04:04:05;101473.84;;;10.36;87.19
76260;BME280;65076;52.362;6.588;2023-01-04T04:06:51;101477.38;;;10.38;87.80
76260;BME280;65076;52.362;6.588;2023-01-04T04:09:36;101479.25;;;10.36;87.77
76260;BME280;65076;52.362;6.588;2023-01-04T04:12:05;101472.09;;;10.35;87.88
76260;BME280;65076;52.362;6.588;2023-01-04T04:14:33;101468.53;;;10.33;88.09
76260;BME280;65076;52.362;6.588;2023-01-04T04:17:01;101464.78;;;10.37;88.59
76260;BME280;65076;52.362;6.588;2023-01-04T04:19:29;101457.72;;;10.33;88.16
76260;BME280;65076;52.362;6.588;2023-01-04T04:21:58;101454.56;;;10.20;88.90
76260;BME280;65076;52.362;6.588;2023-01-04T04:24:26;101454.19;;;10.31;88.61
76260;BME280;65076;52.362;6.588;2023-01-04T04:26:54;101451.06;;;10.42;88.50
76260;BME280;65076;52.362;6.588;2023-01-04T04:29:24;101440.03;;;10.48;88.40
76260;BME280;65076;52.362;6.588;2023-01-04T04:31:51;101444.25;;;10.32;88.22
76260;BME280;65076;52.362;6.588;2023-01-04T04:34:19;101435.72;;;10.42;88.68
76260;BME280;65076;52.362;6.588;2023-01-04T04:36:47;101440.19;;;10.43;88.36
76260;BME280;65076;52.362;6.588;2023-01-04T04:39:16;101423.78;;;10.48;88.00
76260;BME280;65076;52.362;6.588;2023-01-04T04:41:44;101436.38;;;10.49;88.53
76260;BME280;65076;52.362;6.588;2023-01-04T04:44:12;101423.78;;;10.48;88.67
76260;BME280;65076;52.362;6.588;2023-01-04T04:46:43;101426.63;;;10.45;88.33
76260;BME280;65076;52.362;6.588;2023-01-04T04:49:13;101428.31;;;10.47;88.65
76260;BME280;65076;52.362;6.588;2023-01-04T04:51:42;101429.81;;;10.56;88.87
76260;BME280;65076;52.362;6.588;2023-01-04T04:54:15;101419.59;;;10.62;88.86
76260;BME280;65076;52.362;6.588;2023-01-04T04:56:45;101428.22;;;10.50;88.91
76260;BME280;65076;52.362;6.588;2023-01-04T04:59:15;101428.75;;;10.60;88.93
76260;BME280;65076;52.362;6.588;2023-01-04T05:01:44;101426.53;;;10.70;88.87
76260;BME280;65076;52.362;6.588;2023-01-04T05:04:12;101421.78;;;10.76;88.75
76260;BME280;65076;52.362;6.588;2023-01-04T05:06:43;101413.84;;;10.72;88.68
76260;BME280;65076;52.362;6.588;2023-01-04T05:09:11;101408.63;;;10.67;88.58
76260;BME280;65076;52.362;6.588;2023-01-04T05:11:40;101404.09;;;10.68;88.38
76260;BME280;65076;52.362;6.588;2023-01-04T05:14:26;101397.94;;;10.86;88.46
76260;BME280;65076;52.362;6.588;2023-01-04T05:16:56;101388.69;;;10.91;88.06
76260;BME280;65076;52.362;6.588;2023-01-04T05:19:24;101386.72;;;10.95;88.35
76260;BME280;65076;52.362;6.588;2023-01-04T05:21:52;101388.53;;;10.94;87.89
76260;BME280;65076;52.362;6.588;2023-01-04T05:24:20;101386.84;;;10.92;87.98
76260;BME280;65076;52.362;6.588;2023-01-04T05:26:48;101379.09;;;11.04;87.95
76260;BME280;65076;52.362;6.588;2023-01-04T05:29:15;101387.53;;;10.97;88.33
76260;BME280;65076;52.362;6.588;2023-01-04T05:31:58;101379.38;;;10.98;88.14
76260;BME280;65076;52.362;6.588;2023-01-04T05:37:19;101367.41;;;11.04;88.22
76260;BME280;65076;52.362;6.588;2023-01-04T05:39:47;101369.81;;;11.10;88.30
76260;BME280;65076;52.362;6.588;2023-01-04T05:42:15;101372.72;;;11.05;88.41
76260;BME280;65076;52.362;6.588;2023-01-04T05:44:52;101374.44;;;11.08;88.23
76260;BME280;65076;52.362;6.588;2023-01-04T05:47:22;101353.88;;;11.04;88.46
76260;BME280;65076;52.362;6.588;2023-01-04T05:49:51;101340.50;;;10.99;88.31
76260;BME280;65076;52.362;6.588;2023-01-04T05:52:20;101347.41;;;11.07;88.60
76260;BME280;65076;52.362;6.588;2023-01-04T05:54:48;101351.50;;;11.17;88.68
76260;BME280;65076;52.362;6.588;2023-01-04T05:57:16;101359.63;;;11.17;88.46
76260;BME280;65076;52.362;6.588;2023-01-04T05:59:44;101348.06;;;11.13;88.89
76260;BME280;65076;52.362;6.588;2023-01-04T06:02:15;101343.97;;;11.03;88.74
76260;BME280;65076;52.362;6.588;2023-01-04T06:04:46;101335.25;;;11.17;88.85
76260;BME280;65076;52.362;6.588;2023-01-04T06:07:24;101332.53;;;11.17;88.61
76260;BME280;65076;52.362;6.588;2023-01-04T06:09:53;101321.72;;;11.17;88.49
76260;BME280;65076;52.362;6.588;2023-01-04T06:12:21;101309.19;;;11.14;88.37
76260;BME280;65076;52.362;6.588;2023-01-04T06:14:49;101317.22;;;11.16;88.13
76260;BME280;65076;52.362;6.588;2023-01-04T06:17:17;101314.88;;;11.08;88.54
76260;BME280;65076;52.362;6.588;2023-01-04T06:19:46;101305.41;;;11.18;88.66
76260;BME280;65076;52.362;6.588;2023-01-04T06:22:14;101309.19;;;11.14;88.87
76260;BME280;65076;52.362;6.588;2023-01-04T06:24:42;101310.13;;;11.13;88.66
76260;BME280;65076;52.362;6.588;2023-01-04T06:27:11;101303.63;;;11.17;88.41
76260;BME280;65076;52.362;6.588;2023-01-04T06:29:38;101314.47;;;11.17;88.37
76260;BME280;65076;52.362;6.588;2023-01-04T06:32:06;101301.59;;;11.22;88.29
76260;BME280;65076;52.362;6.588;2023-01-04T06:34:34;101302.16;;;11.30;88.09
76260;BME280;65076;52.362;6.588;2023-01-04T06:37:04;101299.56;;;11.27;88.17
76260;BME280;65076;52.362;6.588;2023-01-04T06:39:32;101308.38;;;11.32;88.44
76260;BME280;65076;52.362;6.588;2023-01-04T06:42:00;101304.88;;;11.30;88.20
76260;BME280;65076;52.362;6.588;2023-01-04T06:44:32;101293.22;;;11.28;88.10
76260;BME280;65076;52.362;6.588;2023-01-04T06:47:00;101287.66;;;11.31;88.31
76260;BME280;65076;52.362;6.588;2023-01-04T06:49:28;101255.34;;;11.27;88.10
76260;BME280;65076;52.362;6.588;2023-01-04T06:51:56;101264.78;;;11.18;88.66
76260;BME280;65076;52.362;6.588;2023-01-04T06:54:25;101281.28;;;11.32;88.69
76260;BME280;65076;52.362;6.588;2023-01-04T06:56:53;101269.44;;;11.35;88.40
76260;BME280;65076;52.362;6.588;2023-01-04T06:59:21;101280.88;;;11.41;88.40
76260;BME280;65076;52.362;6.588;2023-01-04T07:01:49;101286.75;;;11.31;88.57
76260;BME280;65076;52.362;6.588;2023-01-04T07:04:17;101259.34;;;11.38;88.49
76260;BME280;65076;52.362;6.588;2023-01-04T07:06:45;101273.91;;;11.36;88.52
76260;BME280;65076;52.362;6.588;2023-01-04T07:09:13;101269.50;;;11.33;88.58
76260;BME280;65076;52.362;6.588;2023-01-04T07:11:43;101284.66;;;11.37;88.63
76260;BME280;65076;52.362;6.588;2023-01-04T07:14:11;101284.66;;;11.37;88.58
76260;BME280;65076;52.362;6.588;2023-01-04T07:16:39;101272.41;;;11.49;88.47
76260;BME280;65076;52.362;6.588;2023-01-04T07:19:07;101266.31;;;11.44;88.35
76260;BME280;65076;52.362;6.588;2023-01-04T07:21:35;101276.06;;;11.48;88.07
76260;BME280;65076;52.362;6.588;2023-01-04T07:24:03;101261.63;;;11.47;88.31
76260;BME280;65076;52.362;6.588;2023-01-04T07:26:32;101267.59;;;11.56;88.13
76260;BME280;65076;52.362;6.588;2023-01-04T07:29:02;101268.38;;;11.58;88.29
76260;BME280;65076;52.362;6.588;2023-01-04T07:31:44;101265.34;;;11.65;87.76
76260;BME280;65076;52.362;6.588;2023-01-04T07:34:15;101242.59;;;11.49;88.16
76260;BME280;65076;52.362;6.588;2023-01-04T07:36:45;101267.00;;;11.49;89.22
76260;BME280;65076;52.362;6.588;2023-01-04T07:39:14;101269.44;;;11.55;88.87
76260;BME280;65076;52.362;6.588;2023-01-04T07:41:43;101267.72;;;11.73;88.60
76260;BME280;65076;52.362;6.588;2023-01-04T07:44:20;101259.78;;;11.68;88.54
76260;BME280;65076;52.362;6.588;2023-01-04T07:46:51;101255.81;;;11.77;88.25
76260;BME280;65076;52.362;6.588;2023-01-04T07:49:19;101257.94;;;11.69;88.59
76260;BME280;65076;52.362;6.588;2023-01-04T07:51:47;101252.22;;;11.76;88.52
76260;BME280;65076;52.362;6.588;2023-01-04T07:54:17;101239.81;;;11.89;88.38
76260;BME280;65076;52.362;6.588;2023-01-04T07:56:46;101250.63;;;11.91;88.41
76260;BME280;65076;52.362;6.588;2023-01-04T07:59:15;101233.75;;;11.84;88.23
76260;BME280;65076;52.362;6.588;2023-01-04T08:01:46;101238.38;;;11.82;87.89
76260;BME280;65076;52.362;6.588;2023-01-04T08:04:17;101245.47;;;11.85;88.28
76260;BME280;65076;52.362;6.588;2023-01-04T08:06:52;101245.75;;;11.79;88.14
76260;BME280;65076;52.362;6.588;2023-01-04T08:09:20;101228.75;;;11.94;87.82
76260;BME280;65076;52.362;6.588;2023-01-04T08:11:48;101243.78;;;12.01;87.37
76260;BME280;65076;52.362;6.588;2023-01-04T08:14:16;101241.03;;;12.03;87.40
76260;BME280;65076;52.362;6.588;2023-01-04T08:16:45;101232.50;;;11.92;87.70
76260;BME280;65076;52.362;6.588;2023-01-04T08:19:15;101239.47;;;11.97;87.59
76260;BME280;65076;52.362;6.588;2023-01-04T08:21:45;101255.16;;;11.91;87.65
76260;BME280;65076;52.362;6.588;2023-01-04T08:24:16;101244.03;;;11.97;87.30
76260;BME280;65076;52.362;6.588;2023-01-04T08:26:45;101247.31;;;12.03;87.07
76260;BME280;65076;52.362;6.588;2023-01-04T08:29:14;101249.31;;;12.18;87.22
76260;BME280;65076;52.362;6.588;2023-01-04T08:31:42;101247.81;;;12.11;87.10
76260;BME280;65076;52.362;6.588;2023-01-04T08:34:11;101253.44;;;11.88;87.41
76260;BME280;65076;52.362;6.588;2023-01-04T08:36:45;101243.72;;;12.03;87.57
76260;BME280;65076;52.362;6.588;2023-01-04T08:39:14;101238.59;;;11.97;87.89
76260;BME280;65076;52.362;6.588;2023-01-04T08:41:43;101246.44;;;12.03;87.97
76260;BME280;65076;52.362;6.588;2023-01-04T08:44:36;101237.44;;;12.02;87.57
76260;BME280;65076;52.362;6.588;2023-01-04T08:47:04;101234.41;;;11.89;88.00
76260;BME280;65076;52.362;6.588;2023-01-04T08:49:33;101236.66;;;11.99;87.86
76260;BME280;65076;52.362;6.588;2023-01-04T08:52:01;101236.31;;;12.06;87.71
76260;BME280;65076;52.362;6.588;2023-01-04T08:54:29;101239.53;;;11.96;88.34
76260;BME280;65076;52.362;6.588;2023-01-04T08:56:57;101230.16;;;12.03;88.13
76260;BME280;65076;52.362;6.588;2023-01-04T08:59:25;101233.44;;;12.09;87.89
76260;BME280;65076;52.362;6.588;2023-01-04T09:01:53;101231.78;;;12.07;87.98
76260;BME280;65076;52.362;6.588;2023-01-04T09:04:30;101223.88;;;12.02;87.84
76260;BME280;65076;52.362;6.588;2023-01-04T09:06:59;101220.75;;;12.10;88.07
76260;BME280;65076;52.362;6.588;2023-01-04T09:09:27;101220.63;;;12.13;87.93
76260;BME280;65076;52.362;6.588;2023-01-04T09:11:55;101232.44;;;12.12;88.02
76260;BME280;65076;52.362;6.588;2023-01-04T09:14:25;101217.69;;;12.17;88.21
76260;BME280;65076;52.362;6.588;2023-01-04T09:16:53;101219.06;;;12.26;87.74
76260;BME280;65076;52.362;6.588;2023-01-04T09:19:22;101229.88;;;12.09;88.19
76260;BME280;65076;52.362;6.588;2023-01-04T09:21:50;101220.84;;;12.27;88.35
76260;BME280;65076;52.362;6.588;2023-01-04T09:24:19;101222.25;;;12.17;88.17
76260;BME280;65076;52.362;6.588;2023-01-04T09:26:48;101219.59;;;12.15;88.34
76260;BME280;65076;52.362;6.588;2023-01-04T09:29:16;101229.78;;;12.29;88.28
76260;BME280;65076;52.362;6.588;2023-01-04T09:31:44;101234.47;;;12.25;88.19
76260;BME280;65076;52.362;6.588;2023-01-04T09:34:12;101223.06;;;12.19;87.87
76260;BME280;65076;52.362;6.588;2023-01-04T09:36:43;101242.94;;;12.19;88.55
76260;BME280;65076;52.362;6.588;2023-01-04T09:39:12;101233.91;;;12.19;88.50
76260;BME280;65076;52.362;6.588;2023-01-04T09:41:54;101230.59;;;12.12;88.52
76260;BME280;65076;52.362;6.588;2023-01-04T09:44:37;101243.22;;;12.13;88.83
76260;BME280;65076;52.362;6.588;2023-01-04T09:47:33;101241.75;;;12.06;88.96
76260;BME280;65076;52.362;6.588;2023-01-04T09:50:11;101232.88;;;12.21;89.16
76260;BME280;65076;52.362;6.588;2023-01-04T09:52:47;101237.75;;;12.32;88.93
76260;BME280;65076;52.362;6.588;2023-01-04T09:55:26;101238.75;;;12.12;89.16
76260;BME280;65076;52.362;6.588;2023-01-04T09:58:13;101238.44;;;12.18;88.82
76260;BME280;65076;52.362;6.588;2023-01-04T10:00:50;101250.31;;;12.35;89.01
76260;BME280;65076;52.362;6.588;2023-01-04T10:03:28;101240.13;;;12.21;88.98
76260;BME280;65076;52.362;6.588;2023-01-04T10:06:00;101239.00;;;12.25;88.89
76260;BME280;65076;52.362;6.588;2023-01-04T10:08:29;101244.53;;;12.23;89.37
76260;BME280;65076;52.362;6.588;2023-01-04T10:11:14;101233.69;;;12.23;89.39
76260;BME280;65076;52.362;6.588;2023-01-04T10:14:08;101249.22;;;12.39;89.34
76260;BME280;65076;52.362;6.588;2023-01-04T10:17:04;101240.84;;;12.43;89.05
76260;BME280;65076;52.362;6.588;2023-01-04T10:20:31;101238.19;;;12.42;88.92
76260;BME280;65076;52.362;6.588;2023-01-04T10:23:46;101236.81;;;12.33;89.21
76260;BME280;65076;52.362;6.588;2023-01-04T10:26:29;101223.19;;;12.35;89.23
76260;BME280;65076;52.362;6.588;2023-01-04T10:29:22;101225.06;;;12.32;89.39
76260;BME280;65076;52.362;6.588;2023-01-04T10:32:11;101230.97;;;12.23;89.54
76260;BME280;65076;52.362;6.588;2023-01-04T10:34:45;101226.97;;;12.30;89.57
76260;BME280;65076;52.362;6.588;2023-01-04T10:37:17;101218.06;;;12.28;89.79
76260;BME280;65076;52.362;6.588;2023-01-04T10:39:50;101227.25;;;12.43;90.03
76260;BME280;65076;52.362;6.588;2023-01-04T10:42:30;101228.38;;;12.56;89.57
76260;BME280;65076;52.362;6.588;2023-01-04T10:45:10;101221.25;;;12.37;89.76
76260;BME280;65076;52.362;6.588;2023-01-04T10:47:53;101233.41;;;12.47;89.54
76260;BME280;65076;52.362;6.588;2023-01-04T10:50:32;101219.88;;;12.64;89.41
76260;BME280;65076;52.362;6.588;2023-01-04T10:53:11;101234.28;;;12.47;90.11
76260;BME280;65076;52.362;6.588;2023-01-04T10:55:48;101218.19;;;12.61;89.38
76260;BME280;65076;52.362;6.588;2023-01-04T10:58:43;101213.31;;;12.51;89.79
76260;BME280;65076;52.362;6.588;2023-01-04T11:01:20;101194.41;;;12.49;89.44
76260;BME280;65076;52.362;6.588;2023-01-04T11:03:55;101206.78;;;12.55;89.67
76260;BME280;65076;52.362;6.588;2023-01-04T11:06:32;101202.63;;;12.65;89.22
76260;BME280;65076;52.362;6.588;2023-01-04T11:09:07;101211.09;;;12.59;89.61
76260;BME280;65076;52.362;6.588;2023-01-04T11:11:50;101207.00;;;12.67;89.36
76260;BME280;65076;52.362;6.588;2023-01-04T11:14:23;101203.75;;;12.61;89.17
76260;BME280;65076;52.362;6.588;2023-01-04T11:17:00;101199.34;;;12.58;89.69
76260;BME280;65076;52.362;6.588;2023-01-04T11:19:31;101197.19;;;12.48;89.89
76260;BME280;65076;52.362;6.588;2023-01-04T11:22:04;101184.59;;;12.64;89.92
76260;BME280;65076;52.362;6.588;2023-01-04T11:24:39;101195.03;;;12.54;89.63
76260;BME280;65076;52.362;6.588;2023-01-04T11:27:34;101193.75;;;12.44;90.34
76260;BME280;65076;52.362;6.588;2023-01-04T11:30:13;101180.50;;;12.55;90.05
76260;BME280;65076;52.362;6.588;2023-01-04T11:32:51;101175.63;;;12.62;90.23
76260;BME280;65076;52.362;6.588;2023-01-04T11:35:37;101171.47;;;12.72;89.46
76260;BME280;65076;52.362;6.588;2023-01-04T11:38:11;101177.91;;;12.71;89.20
76260;BME280;65076;52.362;6.588;2023-01-04T11:40:41;101169.75;;;12.71;89.31
76260;BME280;65076;52.362;6.588;2023-01-04T11:43:23;101176.91;;;12.89;89.08
76260;BME280;65076;52.362;6.588;2023-01-04T11:45:58;101177.91;;;12.71;88.87
76260;BME280;65076;52.362;6.588;2023-01-04T11:48:40;101185.06;;;12.72;89.12
76260;BME280;65076;52.362;6.588;2023-01-04T11:51:18;101170.84;;;12.50;89.35
76260;BME280;65076;52.362;6.588;2023-01-04T11:54:00;101161.66;;;12.69;89.55
76260;BME280;65076;52.362;6.588;2023-01-04T11:56:31;101152.00;;;12.64;89.91
76260;BME280;65076;52.362;6.588;2023-01-04T11:59:13;101151.28;;;12.78;89.58
76260;BME280;65076;52.362;6.588;2023-01-04T12:01:51;101144.97;;;12.94;89.24
76260;BME280;65076;52.362;6.588;2023-01-04T12:05:01;101139.31;;;12.82;89.11
76260;BME280;65076;52.362;6.588;2023-01-04T12:07:30;101133.78;;;12.83;88.84
76260;BME280;65076;52.362;6.588;2023-01-04T12:10:01;101132.19;;;12.62;88.90
76260;BME280;65076;52.362;6.588;2023-01-04T12:12:46;101129.66;;;12.59;89.33
76260;BME280;65076;52.362;6.588;2023-01-04T12:15:19;101132.94;;;12.65;89.87
76260;BME280;65076;52.362;6.588;2023-01-04T12:17:57;101128.03;;;12.89;89.51
76260;BME280;65076;52.362;6.588;2023-01-04T12:20:32;101131.56;;;12.91;89.09
76260;BME280;65076;52.362;6.588;2023-01-04T12:23:02;101136.75;;;12.79;89.16
76260;BME280;65076;52.362;6.588;2023-01-04T12:25:33;101132.69;;;12.70;89.05
76260;BME280;65076;52.362;6.588;2023-01-04T12:28:27;101113.81;;;12.67;89.70
76260;BME280;65076;52.362;6.588;2023-01-04T12:31:30;101129.03;;;12.71;89.89
76260;BME280;65076;52.362;6.588;2023-01-04T12:37:02;101110.31;;;12.82;89.46
76260;BME280;65076;52.362;6.588;2023-01-04T12:39:49;101107.13;;;12.74;89.61
76260;BME280;65076;52.362;6.588;2023-01-04T12:42:19;101110.97;;;12.70;88.64
76260;BME280;65076;52.362;6.588;2023-01-04T12:45:19;101124.03;;;12.62;88.95
76260;BME280;65076;52.362;6.588;2023-01-04T12:47:51;101106.47;;;12.52;89.13
76260;BME280;65076;52.362;6.588;2023-01-04T12:51:17;101109.84;;;12.57;88.90
76260;BME280;65076;52.362;6.588;2023-01-04T12:54:21;101111.38;;;12.45;89.07
76260;BME280;65076;52.362;6.588;2023-01-04T12:57:21;101107.38;;;12.52;88.36
76260;BME280;65076;52.362;6.588;2023-01-04T12:59:53;101103.53;;;12.56;88.05
76260;BME280;65076;52.362;6.588;2023-01-04T13:02:24;101105.41;;;12.56;87.80
76260;BME280;65076;52.362;6.588;2023-01-04T13:04:56;101106.97;;;12.60;87.27
76260;BME280;65076;52.362;6.588;2023-01-04T13:07:47;101101.31;;;12.47;87.52
76260;BME280;65076;52.362;6.588;2023-01-04T13:10:25;101106.03;;;12.61;86.87
76260;BME280;65076;52.362;6.588;2023-01-04T13:13:17;101113.13;;;12.63;86.17
76260;BME280;65076;52.362;6.588;2023-01-04T13:16:03;101111.75;;;12.72;85.55
76260;BME280;65076;52.362;6.588;2023-01-04T13:18:41;101117.91;;;12.58;86.16
76260;BME280;65076;52.362;6.588;2023-01-04T13:21:15;101116.22;;;12.73;85.91
76260;BME280;65076;52.362;6.588;2023-01-04T13:23:52;101121.75;;;12.54;86.01
76260;BME280;65076;52.362;6.588;2023-01-04T13:26:34;101123.91;;;12.82;85.44
76260;BME280;65076;52.362;6.588;2023-01-04T13:29:06;101124.47;;;12.71;85.05
76260;BME280;65076;52.362;6.588;2023-01-04T13:31:46;101122.78;;;12.69;84.54
76260;BME280;65076;52.362;6.588;2023-01-04T13:34:24;101118.88;;;12.74;84.56
76260;BME280;65076;52.362;6.588;2023-01-04T13:37:05;101133.97;;;12.80;84.85
76260;BME280;65076;52.362;6.588;2023-01-04T13:39:48;101143.88;;;12.81;84.33
76260;BME280;65076;52.362;6.588;2023-01-04T13:42:24;101130.84;;;12.70;84.11
76260;BME280;65076;52.362;6.588;2023-01-04T13:45:16;101126.75;;;12.79;84.46
76260;BME280;65076;52.362;6.588;2023-01-04T13:48:00;101134.41;;;12.88;83.81
76260;BME280;65076;52.362;6.588;2023-01-04T13:50:33;101132.44;;;12.92;83.36
76260;BME280;65076;52.362;6.588;2023-01-04T13:53:03;101125.44;;;13.03;82.84